This is the latest recevied weather packets stored in our database for station/object SV2ASS-2. If no packets are shown the sender has not sent any weather packets the latest 10 day(s).
| Time | Temp. | Humidity | Pressure | Rain* | Wind** | Luminosity | Snow |
|---|---|---|---|---|---|---|---|
| 1777607154 | 6.67° C | 63% | 1023.7 hPa | - | - | - | - |
| 1777606254 | 8.89° C | 59% | 1023.6 hPa | - | - | - | - |
| 1777605354 | 7.22° C | 65% | 1023.4 hPa | - | - | - | - |
| 1777604453 | 6.67° C | 67% | 1023.5 hPa | - | - | - | - |
| 1777603553 | 7.22° C | 66% | 1023.5 hPa | - | - | - | - |
| 1777602653 | 7.78° C | 66% | 1023.5 hPa | - | - | - | - |
| 1777601753 | 8.33° C | 63% | 1023.3 hPa | - | - | - | - |
| 1777600853 | 10.56° C | 60% | 1023.4 hPa | - | - | - | - |
| 1777599953 | 9.44° C | 62% | 1023.5 hPa | - | - | - | - |
| 1777599053 | 7.78° C | 68% | 1023.3 hPa | - | - | - | - |
| 1777598153 | 7.78° C | 66% | 1023.3 hPa | - | - | - | - |
| 1777597253 | 7.78° C | 67% | 1023.2 hPa | - | - | - | - |
| 1777596353 | 7.78° C | 65% | 1023.1 hPa | - | - | - | - |
| 1777595453 | 8.33° C | 66% | 1022.9 hPa | - | - | - | - |
| 1777594553 | 8.33° C | 66% | 1023 hPa | - | - | - | - |
| 1777593652 | 9.44° C | 63% | 1023 hPa | - | - | - | - |
| 1777592752 | 10° C | 61% | 1022.9 hPa | - | - | - | - |
| 1777591852 | 8.33° C | 66% | 1022.9 hPa | - | - | - | - |
| 1777590952 | 8.89° C | 65% | 1022.9 hPa | - | - | - | - |
| 1777590052 | 8.89° C | 66% | 1023 hPa | - | - | - | - |
| 1777589151 | 8.89° C | 65% | 1023 hPa | - | - | - | - |
| 1777588251 | 8.89° C | 67% | 1023 hPa | - | - | - | - |
| 1777587354 | 11.11° C | 59% | 1023 hPa | - | - | - | - |
| 1777586455 | 10° C | 63% | 1022.9 hPa | - | - | - | - |
| 1777585554 | 8.33° C | 65% | 1022.5 hPa | - | - | - | - |
* Rain since midnight (hover to see other rain measurements)
** Current wind speed in m/s (hover to see current wind gust speed)